• Join FlightAware (Why Join?)
  • Login
  • US Flag 
04:05PM EDT


 

Airport Tracker/Info


-or-


 

Live Flight TrackerFlight Track Log ✈ N777NC ✈ 28-Jun-2013 ✈ KCAE - KATL

Flight Track Log - Related Links

Times and Time Zones

All times are in EDT time to prevent confusion due to time zone crossing. See the N777NC flight status page for this flight to view local times or setup timezone preferences in your user account.

Time Position Orientation Groundspeed Altitude Reporting Facility
EDT Latitude Longitude Course Direction KTS MPH feet Rate Location/Type
04:19PM 33.8367 -81.1400 259° West 248 285 4,400  Level Jacksonville Center
04:20PM 33.8151 -81.2958 261° West  Level FlightAware Approximate
04:20PM 33.8253 -81.2275 261° West 253 291 6,600  Level Jacksonville Center
04:21PM 33.8037 -81.3875 261° West  Level FlightAware Approximate
04:21PM 33.8036 -81.3131 253° West 265 305 8,600  Level Jacksonville Center
04:22PM 33.7901 -81.4760 259° West  Level FlightAware Approximate
04:23PM 33.7754 -81.5643 259° West  Level FlightAware Approximate
04:23PM 33.7772 -81.5372 262° West 283 326 13,300  Level Atlanta Center
04:24PM 33.7667 -81.6425 263° West 304 350 14,400 1,200 Climbing Atlanta Center
04:25PM 33.7522 -81.7553 261° West 329 379 15,700 2,100 Climbing Atlanta Center
04:26PM 33.7436 -81.8653 265° West 335 386 18,700 2,160 Climbing Atlanta Center
04:27PM 33.7289 -81.9681 260° West 330 380 20,100 1,320 Climbing Atlanta Center
04:28PM 33.7158 -82.0758 262° West 330 380 21,400 960 Climbing Atlanta Center
04:29PM 33.6906 -82.1814 254° West 330 380 22,100 300 Climbing Atlanta Center
04:30PM 33.6397 -82.2897 241° Southwest 335 386 22,000 -60 Descending Atlanta Center
04:31PM 33.5631 -82.3136 195° South 319 367 22,000  Level Atlanta Center
04:32PM 33.4667 -82.2883 168° South 303 349 22,000  Level Atlanta Center
04:33PM 33.3947 -82.3667 222° Southwest 302 348 22,000  Level Atlanta Center
04:34PM 33.3692 -82.4842 255° West 342 394 22,000  Level Atlanta Center
04:35PM 33.3453 -82.5967 256° West 370 426 22,000  Level Atlanta Center
04:36PM 33.3156 -82.7239 254° West 392 451 22,000 -120 Level Atlanta Center
04:37PM 33.2917 -82.8508 257° West 397 457 21,800 -780 Descending Atlanta Center
04:38PM 33.2719 -82.9656 258° West 379 436 20,500 -1,200 Descending Atlanta Center
04:39PM 33.2497 -83.0725 256° West 342 394 19,400 -1,080 Descending Atlanta Center
04:40PM 33.2422 -83.1744 265° West 325 374 18,400 -1,200 Descending Atlanta Center
04:41PM 33.2347 -83.2839 265° West 325 374 17,100 -1,320 Descending Atlanta Center
04:42PM 33.2269 -83.3906 265° West 320 368 15,800 -1,320 Descending Atlanta Center
04:43PM 33.1731 -83.4681 230° Southwest 287 330 14,500 -1,020 Descending Atlanta Center
04:44PM 33.1108 -83.5478 227° Southwest 309 356 13,800 -300 Descending Atlanta Center
04:45PM 33.0589 -83.6397 236° Southwest 327 376 13,900 -120 Climbing Atlanta Center
04:46PM 33.0175 -83.7417 244° Southwest 340 391 13,600 -1,320 Descending Atlanta Center
04:47PM 33.0656 -83.8233 305° West 271 312 11,300 -1,860 Descending Atlanta Center
04:48PM 33.1408 -83.8875 324° Northwest 293 337 9,900 -660 Descending Atlanta Center
04:49PM 33.2078 -83.9494 322° Northwest 306 352 10,000 -420 Climbing Atlanta Center
04:50PM 33.2725 -84.0089 322° Northwest 298 343 9,100 -1,320 Descending Atlanta Center
04:51PM 33.3392 -84.0489 333° Northwest 282 325 7,400 -1,620 Descending Atlanta Center
04:52PM 33.4103 -84.0836 338° Northwest 268 308 5,900 -1,500 Descending Atlanta Center
04:53PM 33.4622 -84.1258 326° Northwest 257 296 4,500 -1,500 Descending Atlanta Center
04:54PM 33.5000 -84.1667 318° Northwest 256 295 3,500 -1,080 Descending Atlanta TRACON
04:55PM 33.5500 -84.2000 331° Northwest 244 281 2,900 -720 Descending Atlanta TRACON